createdAt,value
2018-03-30T00:01:48.630Z,72.88
2018-03-30T00:04:14.995Z,75.00
2018-03-30T00:06:41.406Z,75.12
2018-03-30T00:09:07.927Z,73.95
2018-03-30T00:11:34.354Z,74.54
2018-03-30T00:14:00.677Z,75.20
2018-03-30T00:16:27.034Z,73.29
2018-03-30T00:18:53.405Z,73.36
2018-03-30T00:21:19.834Z,71.84
2018-03-30T00:23:46.212Z,71.59
2018-03-30T00:26:12.620Z,73.87
2018-03-30T00:28:38.949Z,75.33
2018-03-30T00:31:05.429Z,75.60
2018-03-30T00:33:31.848Z,74.75
2018-03-30T00:35:58.198Z,77.25
2018-03-30T00:38:24.660Z,76.14
2018-03-30T00:40:51.077Z,78.11
2018-03-30T00:43:17.592Z,79.91
2018-03-30T00:45:44.033Z,78.70
2018-03-30T00:48:10.391Z,79.33
2018-03-30T00:50:36.796Z,79.49
2018-03-30T00:53:03.222Z,80.55
2018-03-30T00:55:29.572Z,82.10
2018-03-30T00:57:55.949Z,81.74
2018-03-30T01:00:22.364Z,82.72
2018-03-30T01:02:48.768Z,83.74
2018-03-30T01:05:15.091Z,84.49
2018-03-30T01:07:41.460Z,81.26
2018-03-30T01:10:08.567Z,82.26
2018-03-30T01:12:35.052Z,81.80
2018-03-30T01:15:01.588Z,85.30
2018-03-30T01:17:27.915Z,85.25
2018-03-30T01:19:54.265Z,84.78
2018-03-30T01:22:20.799Z,84.47
2018-03-30T01:24:47.124Z,82.83
2018-03-30T01:27:13.505Z,80.38
2018-03-30T01:29:39.959Z,81.08
2018-03-30T01:32:06.309Z,80.53
2018-03-30T01:34:32.638Z,80.18
2018-03-30T01:36:59.064Z,80.84
2018-03-30T01:39:26.219Z,80.84
2018-03-30T01:41:52.788Z,80.47
2018-03-30T01:44:19.180Z,82.02
2018-03-30T01:46:45.566Z,81.79
2018-03-30T01:49:11.966Z,83.56
2018-03-30T01:51:38.486Z,84.87
2018-03-30T01:54:04.888Z,85.01
2018-03-30T01:56:31.252Z,86.09
2018-03-30T01:58:57.600Z,86.08
2018-03-30T02:01:24.028Z,90.43
2018-03-30T02:03:50.387Z,89.11
2018-03-30T02:06:16.858Z,88.42
2018-03-30T02:08:43.239Z,86.72
2018-03-30T02:11:09.585Z,85.94
2018-03-30T02:13:36.403Z,86.15
2018-03-30T02:16:02.853Z,86.22
2018-03-30T02:18:30.131Z,85.17
2018-03-30T02:20:56.556Z,84.71
2018-03-30T02:23:22.993Z,84.53
2018-03-30T02:25:49.344Z,83.03
2018-03-30T02:28:15.777Z,84.16
2018-03-30T02:30:42.127Z,86.38
2018-03-30T02:33:08.620Z,87.16
2018-03-30T02:35:35.017Z,87.38
2018-03-30T02:38:01.377Z,87.80
2018-03-30T02:40:27.808Z,87.46
2018-03-30T02:42:54.266Z,86.93
2018-03-30T02:45:20.579Z,86.39
2018-03-30T02:47:46.902Z,87.07
2018-03-30T02:50:13.288Z,85.93
2018-03-30T02:52:39.718Z,86.33
2018-03-30T02:55:06.137Z,85.70
2018-03-30T02:57:32.597Z,87.34
2018-03-30T02:59:58.918Z,85.21
2018-03-30T03:02:25.302Z,86.29
2018-03-30T03:04:51.802Z,87.04
2018-03-30T03:07:18.254Z,88.64
2018-03-30T03:09:44.725Z,88.37
2018-03-30T03:12:11.157Z,87.07
2018-03-30T03:14:37.520Z,86.44
2018-03-30T03:17:03.939Z,86.79
2018-03-30T03:19:30.296Z,87.75
2018-03-30T03:21:56.823Z,87.31
2018-03-30T03:24:23.262Z,87.38
2018-03-30T03:26:49.661Z,86.20
2018-03-30T03:29:16.024Z,86.99
2018-03-30T03:31:42.633Z,86.38
2018-03-30T03:34:09.007Z,86.93
2018-03-30T03:36:35.605Z,85.53
2018-03-30T03:39:02.231Z,88.03
2018-03-30T03:41:28.636Z,89.60
2018-03-30T03:43:54.975Z,89.20
2018-03-30T03:46:21.381Z,89.96
2018-03-30T03:48:47.774Z,89.54
2018-03-30T03:51:14.182Z,89.83
2018-03-30T03:53:40.516Z,90.08
2018-03-30T03:56:06.909Z,89.99
2018-03-30T03:58:33.247Z,89.66
2018-03-30T04:00:59.580Z,89.50
2018-03-30T04:03:26.164Z,91.06
2018-03-30T04:05:52.507Z,90.70
2018-03-30T04:08:18.907Z,90.82
2018-03-30T04:10:45.340Z,91.12
2018-03-30T04:13:11.716Z,90.04
2018-03-30T04:15:38.093Z,87.79
2018-03-30T04:18:04.509Z,86.49
2018-03-30T04:20:31.377Z,88.24
2018-03-30T04:22:58.274Z,87.55
2018-03-30T04:25:25.418Z,88.97
2018-03-30T04:27:52.255Z,89.03
2018-03-30T04:30:19.433Z,88.42
2018-03-30T04:32:45.970Z,89.16
2018-03-30T04:35:12.366Z,89.71
2018-03-30T04:37:38.734Z,88.79
2018-03-30T04:40:05.095Z,90.33
2018-03-30T04:42:31.684Z,89.54
2018-03-30T04:44:58.108Z,88.53
2018-03-30T04:47:24.501Z,86.61
2018-03-30T04:49:50.936Z,81.30
2018-03-30T04:52:17.406Z,73.74
2018-03-30T04:54:43.795Z,69.34
2018-03-30T04:57:10.182Z,65.54
2018-03-30T04:59:36.569Z,66.35
2018-03-30T05:02:02.995Z,65.91
2018-03-30T05:04:29.461Z,63.23
2018-03-30T05:06:56.243Z,63.82
2018-03-30T05:09:22.655Z,57.32
2018-03-30T05:11:49.126Z,59.03
2018-03-30T05:14:15.507Z,57.75
2018-03-30T05:16:41.962Z,53.49
2018-03-30T05:19:08.505Z,56.41
2018-03-30T05:21:35.233Z,56.02
2018-03-30T05:24:01.724Z,54.46
2018-03-30T05:26:28.795Z,54.29
2018-03-30T05:28:57.076Z,54.21
2018-03-30T05:31:23.779Z,50.04
2018-03-30T05:33:50.243Z,53.71
2018-03-30T05:36:16.697Z,51.80
2018-03-30T05:38:43.337Z,53.94
2018-03-30T05:41:09.799Z,55.52
2018-03-30T05:43:36.243Z,56.86
2018-03-30T05:46:02.679Z,56.50
2018-03-30T05:48:29.400Z,56.55
2018-03-30T05:50:55.909Z,55.70
2018-03-30T05:53:25.075Z,55.09
2018-03-30T05:55:53.181Z,60.21
2018-03-30T05:58:19.821Z,55.24
2018-03-30T06:00:46.238Z,56.32
2018-03-30T06:03:12.820Z,57.27
2018-03-30T06:05:39.305Z,58.50
2018-03-30T06:08:05.804Z,56.02
2018-03-30T06:10:32.303Z,59.64
2018-03-30T06:12:58.870Z,58.09
2018-03-30T06:15:25.620Z,56.99
2018-03-30T06:17:52.035Z,59.72
2018-03-30T06:20:18.434Z,56.53
2018-03-30T06:22:44.985Z,58.50
2018-03-30T06:25:11.428Z,57.20
2018-03-30T06:27:38.292Z,59.28
2018-03-30T06:30:04.725Z,59.72
2018-03-30T06:32:31.217Z,59.23
2018-03-30T06:34:57.715Z,61.74
2018-03-30T06:37:24.215Z,59.82
2018-03-30T06:39:50.614Z,59.68
2018-03-30T06:42:17.131Z,58.39
2018-03-30T06:44:43.581Z,60.10
2018-03-30T06:47:10.041Z,55.77
2018-03-30T06:49:36.471Z,56.66
2018-03-30T06:52:02.938Z,57.08
2018-03-30T06:54:29.304Z,57.41
2018-03-30T06:56:55.809Z,57.58
2018-03-30T06:59:22.194Z,57.22
2018-03-30T07:01:48.551Z,58.75
2018-03-30T07:04:15.013Z,58.05
2018-03-30T07:06:41.459Z,58.32
2018-03-30T07:09:08.149Z,57.54
2018-03-30T07:11:34.557Z,57.61
2018-03-30T07:14:00.935Z,57.46
2018-03-30T07:16:27.444Z,58.73
2018-03-30T07:18:53.974Z,57.87
2018-03-30T07:21:20.424Z,61.69
2018-03-30T07:23:46.921Z,60.94
2018-03-30T07:26:13.312Z,59.35
2018-03-30T07:28:39.711Z,59.16
2018-03-30T07:31:06.288Z,56.91
2018-03-30T07:33:32.826Z,58.57
2018-03-30T07:35:59.372Z,56.43
2018-03-30T07:38:26.024Z,57.58
2018-03-30T07:40:52.705Z,59.04
2018-03-30T07:43:20.052Z,56.34
2018-03-30T07:45:46.529Z,56.62
2018-03-30T07:48:13.294Z,58.59
2018-03-30T07:50:39.805Z,56.88
2018-03-30T07:53:06.294Z,55.66
2018-03-30T07:55:32.985Z,52.90
2018-03-30T07:58:00.534Z,48.87
2018-03-30T08:00:27.108Z,48.76
2018-03-30T08:02:53.872Z,45.70
2018-03-30T08:05:20.362Z,44.06
2018-03-30T08:07:46.996Z,44.27
2018-03-30T08:10:13.507Z,47.96
2018-03-30T08:12:40.357Z,46.22
2018-03-30T08:15:07.051Z,43.75
2018-03-30T08:17:33.672Z,43.45
2018-03-30T08:20:00.405Z,45.19
2018-03-30T08:22:27.612Z,42.88
2018-03-30T08:24:54.188Z,42.51
2018-03-30T08:27:20.666Z,41.95
2018-03-30T08:29:47.161Z,45.72
2018-03-30T08:32:13.984Z,41.19
2018-03-30T08:34:40.772Z,45.26
2018-03-30T08:37:07.441Z,44.30
2018-03-30T08:39:34.192Z,44.39
2018-03-30T08:42:00.974Z,38.72
2018-03-30T08:44:27.388Z,38.60
2018-03-30T08:46:53.840Z,43.25
2018-03-30T08:49:20.253Z,41.17
2018-03-30T08:51:46.629Z,39.62
2018-03-30T08:54:13.118Z,39.06
2018-03-30T08:56:39.519Z,39.28
2018-03-30T08:59:05.949Z,40.53
2018-03-30T09:01:32.578Z,41.38
2018-03-30T09:03:58.992Z,33.94
2018-03-30T09:06:25.657Z,37.16
2018-03-30T09:08:52.693Z,39.41
2018-03-30T09:11:20.268Z,38.46
2018-03-30T09:13:48.568Z,41.33
2018-03-30T09:16:18.616Z,34.03
2018-03-30T09:18:45.669Z,37.62
2018-03-30T09:21:12.196Z,36.83
2018-03-30T09:23:38.685Z,35.44
2018-03-30T09:26:05.075Z,36.59
2018-03-30T09:28:31.511Z,36.25
2018-03-30T09:30:57.978Z,35.06
2018-03-30T09:33:27.343Z,35.23
2018-03-30T09:35:54.731Z,34.23
2018-03-30T09:38:21.284Z,36.52
2018-03-30T09:40:47.902Z,32.27
2018-03-30T09:43:14.304Z,32.51
2018-03-30T09:45:41.040Z,31.51
2018-03-30T09:48:07.529Z,31.60
2018-03-30T09:50:34.144Z,29.23
2018-03-30T09:53:00.717Z,33.04
2018-03-30T09:55:27.394Z,30.08
2018-03-30T09:57:53.940Z,31.39
2018-03-30T10:00:20.603Z,31.77
2018-03-30T10:02:47.161Z,27.69
2018-03-30T10:05:13.556Z,29.71
2018-03-30T10:07:40.066Z,30.37
2018-03-30T10:10:06.411Z,32.20
2018-03-30T10:12:32.923Z,29.98
2018-03-30T10:14:59.433Z,29.71
2018-03-30T10:17:25.899Z,31.63
2018-03-30T10:19:52.588Z,32.61
2018-03-30T10:22:19.169Z,32.11
2018-03-30T10:24:45.811Z,31.11
2018-03-30T10:27:12.193Z,32.35
2018-03-30T10:29:38.687Z,32.23
2018-03-30T10:32:06.698Z,29.94
2018-03-30T10:34:34.114Z,26.92
2018-03-30T10:37:03.153Z,30.31
2018-03-30T10:39:30.354Z,29.66
2018-03-30T10:41:57.122Z,28.77
2018-03-30T10:44:25.464Z,27.59
2018-03-30T10:46:54.052Z,29.70
2018-03-30T10:49:21.001Z,27.65
2018-03-30T10:51:48.840Z,29.42
2018-03-30T10:54:16.522Z,31.78
2018-03-30T10:56:45.789Z,29.47
2018-03-30T10:59:13.699Z,25.51
2018-03-30T11:01:40.747Z,26.55
2018-03-30T11:04:07.323Z,27.75
2018-03-30T11:06:33.899Z,29.57
2018-03-30T11:09:00.354Z,25.12
2018-03-30T11:11:27.299Z,27.29
2018-03-30T11:13:53.906Z,29.73
2018-03-30T11:16:20.869Z,28.65
2018-03-30T11:18:47.429Z,26.59
2018-03-30T11:21:14.118Z,28.23
2018-03-30T11:23:40.786Z,26.14
2018-03-30T11:26:07.299Z,28.17
2018-03-30T11:28:33.793Z,28.70
2018-03-30T11:31:00.441Z,27.34
2018-03-30T11:33:27.169Z,28.26
2018-03-30T11:35:53.867Z,27.73
2018-03-30T11:38:20.341Z,26.39
2018-03-30T11:40:46.964Z,28.86
2018-03-30T11:43:13.549Z,26.68
2018-03-30T11:45:40.058Z,28.00
2018-03-30T11:48:06.563Z,27.28
2018-03-30T11:50:33.208Z,30.05
2018-03-30T11:52:59.792Z,27.51
2018-03-30T11:55:26.411Z,27.90
2018-03-30T11:57:55.046Z,30.92
2018-03-30T12:00:22.103Z,29.91
2018-03-30T12:02:49.112Z,29.37
2018-03-30T12:05:15.853Z,28.51
2018-03-30T12:44:04.606Z,29.33
2018-03-30T12:46:32.184Z,28.84
2018-03-30T12:48:58.901Z,32.11
2018-03-30T12:51:31.797Z,28.60
2018-03-30T12:54:01.644Z,27.23
2018-03-30T12:56:28.958Z,29.05
2018-03-30T12:58:55.697Z,30.46
2018-03-30T13:01:24.262Z,29.00
2018-03-30T13:03:55.248Z,28.88
2018-03-30T13:06:25.359Z,30.54
2018-03-30T13:08:53.688Z,29.13
2018-03-30T13:11:21.921Z,29.96
2018-03-30T13:13:49.427Z,30.37
2018-03-30T13:16:16.706Z,30.16
2018-03-30T13:18:43.981Z,29.47
2018-03-30T13:21:11.239Z,29.94
2018-03-30T13:23:42.256Z,29.90
2018-03-30T13:26:09.884Z,28.95
2018-03-30T13:28:36.757Z,31.10
2018-03-30T13:31:03.671Z,28.94
2018-03-30T13:33:30.444Z,29.88
2018-03-30T13:35:57.132Z,29.94
2018-03-30T13:38:23.926Z,29.51
2018-03-30T13:40:50.903Z,29.50
2018-03-30T13:43:20.779Z,32.39
2018-03-30T13:45:47.511Z,29.61
2018-03-30T13:48:14.170Z,31.32
2018-03-30T13:53:49.925Z,31.01
2018-03-30T13:56:17.644Z,30.88
2018-03-30T13:58:47.287Z,30.77
2018-03-30T14:01:15.882Z,30.96
2018-03-30T14:03:53.670Z,30.82
2018-03-30T14:06:22.161Z,30.33
2018-03-30T14:08:51.591Z,31.33
2018-03-30T14:11:23.895Z,31.53
2018-03-30T14:13:50.546Z,31.18
2018-03-30T14:16:20.951Z,30.65
2018-03-30T14:19:01.107Z,30.08
2018-03-30T14:21:37.446Z,30.10
2018-03-30T14:24:07.367Z,30.76
2018-03-30T14:26:40.140Z,31.20
2018-03-30T14:29:09.679Z,31.07
2018-03-30T14:31:55.703Z,31.86
2018-03-30T14:34:23.695Z,32.61
2018-03-30T14:36:54.364Z,31.54
2018-03-30T14:42:28.278Z,34.06
2018-03-30T14:44:57.060Z,33.24
2018-03-30T14:47:27.467Z,32.75
2018-03-30T14:49:58.652Z,33.72
2018-03-30T14:52:34.128Z,33.53
2018-03-30T14:55:20.707Z,33.49
2018-03-30T14:57:51.270Z,32.46
2018-03-30T15:00:35.421Z,32.15
2018-03-30T15:03:18.605Z,33.02
2018-03-30T15:05:52.743Z,32.42
2018-03-30T15:08:27.904Z,33.61
2018-03-30T15:11:01.607Z,33.08
2018-03-30T15:13:36.307Z,32.85
2018-03-30T15:16:07.723Z,35.19
2018-03-30T15:18:39.269Z,32.76
2018-03-30T15:24:34.340Z,32.86
2018-03-30T15:27:06.753Z,33.48
2018-03-30T15:29:41.812Z,34.30
2018-03-30T15:32:21.069Z,34.40
2018-03-30T15:34:51.706Z,35.43
2018-03-30T15:37:21.888Z,34.55
2018-03-30T15:42:50.336Z,34.35
2018-03-30T15:45:17.282Z,34.70
2018-03-30T15:47:44.182Z,35.15
2018-03-30T15:50:11.131Z,35.16
2018-03-30T15:52:38.052Z,36.60
2018-03-30T15:55:06.274Z,35.58
2018-03-30T15:57:35.449Z,35.29
2018-03-30T16:00:05.320Z,37.61
2018-03-30T16:02:32.180Z,35.71
2018-03-30T16:04:59.000Z,35.81
2018-03-30T16:07:25.700Z,36.22
2018-03-30T16:09:54.351Z,36.31
2018-03-30T16:12:29.127Z,36.34
2018-03-30T16:14:55.895Z,36.37
2018-03-30T16:17:22.733Z,35.99
2018-03-30T16:19:49.680Z,36.46
2018-03-30T16:22:16.254Z,35.95
2018-03-30T16:24:46.226Z,37.20
2018-03-30T16:27:14.601Z,36.14
2018-03-30T16:29:42.578Z,37.91
2018-03-30T16:32:09.022Z,37.20
2018-03-30T16:34:35.625Z,37.10
2018-03-30T16:37:02.307Z,37.69
2018-03-30T16:39:28.901Z,37.72
2018-03-30T16:41:55.437Z,37.72
2018-03-30T16:44:23.616Z,37.84
2018-03-30T16:46:50.626Z,38.01
2018-03-30T16:49:17.314Z,39.22
2018-03-30T16:51:44.366Z,40.07
2018-03-30T16:54:11.324Z,38.87
2018-03-30T16:56:38.295Z,39.53
2018-03-30T16:59:04.948Z,39.18
2018-03-30T17:01:31.366Z,38.75
2018-03-30T17:04:01.814Z,38.70
2018-03-30T17:06:28.414Z,39.90
2018-03-30T17:08:54.981Z,40.08
2018-03-30T17:11:21.757Z,39.50
2018-03-30T17:13:52.450Z,39.32
2018-03-30T17:16:19.080Z,39.42
2018-03-30T17:18:46.192Z,39.52
2018-03-30T17:21:12.967Z,39.10
2018-03-30T17:23:39.610Z,41.49
2018-03-30T17:26:06.256Z,40.93
2018-03-30T17:28:34.174Z,40.41
2018-03-30T17:31:02.542Z,40.75
2018-03-30T17:33:46.947Z,39.32
2018-03-30T17:36:14.205Z,39.83
2018-03-30T17:38:41.332Z,40.00
2018-03-30T17:41:08.462Z,40.31
2018-03-30T17:43:35.314Z,41.29
2018-03-30T17:46:01.782Z,40.16
2018-03-30T17:48:28.516Z,40.32
2018-03-30T17:50:55.053Z,41.29
2018-03-30T17:53:21.584Z,40.24
2018-03-30T17:55:48.081Z,40.45
2018-03-30T17:58:14.813Z,41.37
2018-03-30T18:00:41.388Z,41.56
2018-03-30T18:03:08.405Z,41.72
2018-03-30T18:05:37.152Z,42.55
2018-03-30T18:08:04.198Z,42.36
2018-03-30T18:10:30.998Z,42.70
2018-03-30T18:12:57.824Z,43.30
2018-03-30T18:15:24.359Z,43.91
2018-03-30T18:17:51.160Z,44.74
2018-03-30T18:20:17.698Z,44.28
2018-03-30T18:22:44.800Z,44.35
2018-03-30T18:25:15.188Z,44.31
2018-03-30T18:27:42.288Z,45.06
2018-03-30T18:30:09.137Z,46.00
2018-03-30T18:32:35.738Z,45.98
2018-03-30T18:35:02.356Z,46.37
2018-03-30T18:37:29.346Z,47.00
2018-03-30T18:39:56.949Z,45.73
2018-03-30T18:42:25.412Z,46.19
2018-03-30T18:44:53.175Z,46.48
2018-03-30T18:47:19.921Z,46.49
2018-03-30T18:49:46.892Z,47.15
2018-03-30T18:52:14.140Z,46.04
2018-03-30T18:54:41.007Z,46.50
2018-03-30T18:57:07.647Z,46.53
2018-03-30T18:59:34.528Z,47.71
2018-03-30T19:02:01.971Z,47.77
2018-03-30T19:04:29.848Z,47.92
2018-03-30T19:06:58.540Z,48.17
2018-03-30T19:09:26.330Z,48.23
2018-03-30T19:11:53.080Z,48.08
2018-03-30T19:14:21.229Z,48.60
2018-03-30T19:16:49.116Z,48.04
2018-03-30T19:19:16.308Z,48.40
2018-03-30T19:21:43.253Z,48.16
2018-03-30T19:24:10.019Z,49.56
2018-03-30T19:26:36.764Z,49.07
2018-03-30T19:29:03.459Z,49.37
2018-03-30T19:31:30.640Z,48.75
2018-03-30T19:33:57.362Z,49.42
2018-03-30T19:36:24.099Z,49.65
2018-03-30T19:38:50.582Z,48.65
2018-03-30T19:41:17.445Z,49.79
2018-03-30T19:43:44.094Z,50.71
2018-03-30T19:46:11.876Z,50.77
2018-03-30T19:48:38.915Z,50.64
2018-03-30T19:51:06.062Z,50.94
2018-03-30T19:53:35.281Z,50.47
2018-03-30T19:56:03.043Z,49.57
2018-03-30T19:58:29.779Z,51.02
2018-03-30T20:00:56.338Z,49.45
2018-03-30T20:03:23.815Z,49.50
2018-03-30T20:05:50.526Z,49.26
2018-03-30T20:08:18.848Z,49.28
2018-03-30T20:10:46.076Z,49.73
2018-03-30T20:13:23.919Z,48.82
2018-03-30T20:15:51.659Z,48.87
2018-03-30T20:18:18.526Z,49.54
2018-03-30T20:20:45.543Z,51.06
2018-03-30T20:23:12.622Z,50.40
2018-03-30T20:25:40.430Z,50.64
2018-03-30T20:28:07.101Z,51.46
2018-03-30T20:30:33.552Z,51.59
2018-03-30T20:33:00.346Z,51.66
2018-03-30T20:35:26.951Z,51.88
2018-03-30T20:37:54.217Z,52.19
2018-03-30T20:40:20.932Z,52.99
2018-03-30T20:42:47.350Z,53.17
2018-03-30T20:45:13.829Z,53.58
2018-03-30T20:47:40.226Z,54.12
2018-03-30T20:50:07.082Z,54.96
2018-03-30T20:52:33.817Z,54.85
2018-03-30T20:55:04.379Z,54.37
2018-03-30T20:57:30.809Z,54.34
2018-03-30T20:59:57.280Z,53.85
2018-03-30T21:02:24.718Z,53.49
2018-03-30T21:04:52.512Z,53.88
2018-03-30T21:07:19.091Z,52.59
2018-03-30T21:09:45.797Z,53.44
2018-03-30T21:12:13.093Z,51.87
2018-03-30T21:14:43.475Z,51.93
2018-03-30T21:17:09.980Z,52.83
2018-03-30T21:19:37.037Z,52.57
2018-03-30T21:22:03.944Z,53.58
2018-03-30T21:24:30.464Z,53.36
2018-03-30T21:26:56.899Z,53.15
2018-03-30T21:29:23.346Z,52.94
2018-03-30T21:31:49.740Z,52.94
2018-03-30T21:34:27.076Z,52.12
2018-03-30T21:36:53.809Z,52.48
2018-03-30T21:39:20.658Z,52.58
2018-03-30T21:41:47.050Z,52.59
2018-03-30T21:44:15.560Z,52.72
2018-03-30T21:46:41.850Z,53.24
2018-03-30T21:49:08.247Z,52.55
2018-03-30T21:51:34.439Z,53.21
2018-03-30T21:54:05.331Z,53.29
2018-03-30T21:56:31.508Z,53.86
2018-03-30T21:58:58.119Z,54.22
2018-03-30T22:01:24.463Z,55.01
2018-03-30T22:03:51.815Z,54.85
2018-03-30T22:06:17.998Z,54.55
2018-03-30T22:08:44.131Z,55.57
2018-03-30T22:11:10.222Z,57.06
2018-03-30T22:13:42.144Z,57.04
2018-03-30T22:16:08.264Z,58.08
2018-03-30T22:18:34.438Z,57.31
2018-03-30T22:21:00.916Z,58.02
2018-03-30T22:23:27.076Z,57.58
2018-03-30T22:25:53.200Z,57.66
2018-03-30T22:28:19.380Z,57.64
2018-03-30T22:30:45.505Z,57.14
2018-03-30T22:33:11.611Z,57.06
2018-03-30T22:35:38.842Z,56.29
2018-03-30T22:38:05.038Z,56.49
2018-03-30T22:40:31.165Z,56.44
2018-03-30T22:42:57.290Z,56.29
2018-03-30T22:45:23.593Z,56.89
2018-03-30T22:47:49.739Z,56.90
2018-03-30T22:50:16.149Z,56.65
2018-03-30T22:52:42.553Z,56.52
2018-03-30T22:55:08.743Z,56.77
2018-03-30T22:57:34.926Z,56.73
2018-03-30T23:00:01.014Z,56.56
2018-03-30T23:02:27.216Z,56.78
2018-03-30T23:04:53.367Z,57.08
2018-03-30T23:07:19.442Z,57.46
2018-03-30T23:09:45.524Z,57.70
2018-03-30T23:12:11.719Z,57.66
2018-03-30T23:14:39.943Z,58.08
2018-03-30T23:17:06.103Z,58.09
2018-03-30T23:19:32.266Z,58.46
2018-03-30T23:21:58.355Z,58.85
2018-03-30T23:24:25.575Z,58.56
2018-03-30T23:26:51.732Z,58.55
2018-03-30T23:29:17.948Z,58.72
2018-03-30T23:31:44.101Z,58.81
2018-03-30T23:34:14.091Z,59.05
2018-03-30T23:36:40.233Z,59.63
2018-03-30T23:39:06.390Z,59.52
2018-03-30T23:41:32.550Z,60.47
2018-03-30T23:44:00.770Z,60.71
2018-03-30T23:46:26.965Z,60.90
2018-03-30T23:48:53.124Z,61.42
2018-03-30T23:51:19.234Z,60.99
2018-03-30T23:53:46.354Z,61.40
2018-03-30T23:56:12.494Z,61.92
2018-03-30T23:58:38.607Z,61.77
